createdAt,value
2022-08-17T00:02:26.382Z,21.30
2022-08-17T00:04:54.529Z,21.20
2022-08-17T00:07:21.308Z,21.20
2022-08-17T00:09:48.159Z,21.20
2022-08-17T00:12:41.414Z,21.20
2022-08-17T00:15:02.182Z,21.20
2022-08-17T00:17:29.052Z,21.20
2022-08-17T00:19:55.774Z,21.20
2022-08-17T00:22:31.706Z,21.10
2022-08-17T00:25:05.218Z,21.10
2022-08-17T00:27:31.857Z,21.00
2022-08-17T00:29:58.519Z,21.00
2022-08-17T00:33:12.041Z,21.00
2022-08-17T00:35:14.448Z,21.00
2022-08-17T00:37:41.382Z,20.90
2022-08-17T00:40:11.064Z,20.90
2022-08-17T00:42:38.716Z,21.00
2022-08-17T00:45:07.470Z,21.00
2022-08-17T00:47:34.375Z,21.00
2022-08-17T00:50:01.188Z,21.00
2022-08-17T00:52:37.319Z,21.00
2022-08-17T00:55:06.257Z,21.00
2022-08-17T00:57:37.988Z,21.00
2022-08-17T01:00:15.335Z,20.90
2022-08-17T01:02:45.246Z,20.90
2022-08-17T01:05:19.021Z,20.90
2022-08-17T01:07:47.714Z,20.90
2022-08-17T01:10:58.269Z,21.00
2022-08-17T01:13:03.777Z,21.00
2022-08-17T01:15:33.369Z,20.90
2022-08-17T01:18:00.179Z,20.90
2022-08-17T01:20:27.464Z,20.90
2022-08-17T01:22:54.343Z,20.80
2022-08-17T01:25:22.145Z,20.80
2022-08-17T01:27:49.552Z,20.90
2022-08-17T01:30:56.696Z,20.90
2022-08-17T01:33:04.282Z,20.90
2022-08-17T01:35:31.015Z,21.00
2022-08-17T01:37:57.701Z,21.00
2022-08-17T01:40:43.068Z,21.00
2022-08-17T01:43:24.209Z,20.90
2022-08-17T01:46:03.031Z,20.90
2022-08-17T01:48:36.380Z,20.90
2022-08-17T01:51:07.087Z,21.00
2022-08-17T01:53:42.289Z,21.10
2022-08-17T01:56:11.112Z,21.10
2022-08-17T01:58:40.528Z,21.20
2022-08-17T02:01:10.903Z,21.30
2022-08-17T02:03:38.493Z,21.30
2022-08-17T02:06:26.944Z,21.40
2022-08-17T02:09:01.568Z,21.40
2022-08-17T02:11:33.141Z,21.40
2022-08-17T02:14:03.713Z,21.40
2022-08-17T02:16:37.806Z,21.40
2022-08-17T02:19:11.120Z,21.40
2022-08-17T02:21:40.509Z,21.40
2022-08-17T02:24:10.788Z,21.30
2022-08-17T02:26:37.576Z,21.40
2022-08-17T02:29:04.493Z,21.30
2022-08-17T02:31:31.268Z,21.30
2022-08-17T02:34:03.984Z,21.20
2022-08-17T02:36:31.953Z,21.10
2022-08-17T02:39:01.318Z,21.10
2022-08-17T02:41:28.036Z,21.10
2022-08-17T02:43:54.742Z,21.10
2022-08-17T02:46:22.456Z,21.10
2022-08-17T02:48:49.179Z,21.00
2022-08-17T02:51:16.104Z,21.10
2022-08-17T02:53:42.780Z,21.10
2022-08-17T02:56:09.491Z,21.10
2022-08-17T02:58:36.337Z,21.10
2022-08-17T03:01:07.233Z,21.00
2022-08-17T03:03:35.313Z,21.10
2022-08-17T03:06:02.468Z,21.10
2022-08-17T03:08:29.656Z,21.10
2022-08-17T03:10:56.445Z,21.10
2022-08-17T03:13:23.482Z,21.10
2022-08-17T03:15:50.630Z,21.10
2022-08-17T03:18:25.610Z,21.10
2022-08-17T03:20:58.593Z,21.10
2022-08-17T03:23:26.203Z,21.10
2022-08-17T03:25:55.000Z,21.10
2022-08-17T03:28:23.487Z,21.20
2022-08-17T03:30:51.232Z,21.20
2022-08-17T03:33:19.544Z,21.10
2022-08-17T03:35:46.904Z,21.10
2022-08-17T03:38:18.025Z,21.10
2022-08-17T03:40:57.509Z,21.00
2022-08-17T03:43:29.659Z,21.00
2022-08-17T03:46:28.810Z,21.00
2022-08-17T03:49:21.856Z,21.00
2022-08-17T03:52:07.431Z,21.00
2022-08-17T03:54:52.912Z,21.00
2022-08-17T03:57:19.708Z,21.00
2022-08-17T03:59:46.809Z,21.00
2022-08-17T04:02:19.813Z,20.90
2022-08-17T04:04:46.963Z,20.90
2022-08-17T04:07:13.758Z,20.90
2022-08-17T04:09:40.446Z,20.90
2022-08-17T04:12:07.303Z,20.90
2022-08-17T04:14:39.337Z,20.90
2022-08-17T04:17:26.332Z,20.90
2022-08-17T04:19:53.761Z,20.80
2022-08-17T04:22:30.978Z,20.80
2022-08-17T04:25:17.948Z,20.80
2022-08-17T04:27:44.619Z,20.80
2022-08-17T04:30:12.124Z,20.80
2022-08-17T04:33:03.746Z,20.80
2022-08-17T04:35:38.180Z,20.90
2022-08-17T04:38:06.492Z,20.80
2022-08-17T04:40:52.096Z,20.80
2022-08-17T04:43:21.626Z,20.80
2022-08-17T04:45:55.897Z,20.80
2022-08-17T04:48:35.549Z,20.80
2022-08-17T04:51:06.206Z,20.80
2022-08-17T04:53:32.955Z,20.80
2022-08-17T04:55:59.612Z,20.70
2022-08-17T04:58:26.281Z,20.70
2022-08-17T05:00:54.227Z,20.70
2022-08-17T05:03:20.902Z,20.70
2022-08-17T05:05:49.737Z,20.70
2022-08-17T05:08:19.338Z,20.70
2022-08-17T05:10:50.065Z,20.70
2022-08-17T05:13:19.574Z,20.70
2022-08-17T05:15:49.800Z,20.70
2022-08-17T05:18:17.383Z,20.70
2022-08-17T05:20:44.751Z,20.70
2022-08-17T05:23:16.304Z,20.70
2022-08-17T05:25:47.634Z,20.70
2022-08-17T05:28:16.284Z,20.70
2022-08-17T05:30:44.744Z,20.70
2022-08-17T05:33:33.770Z,20.70
2022-08-17T05:36:04.411Z,20.70
2022-08-17T05:38:31.977Z,20.60
2022-08-17T05:41:01.653Z,20.60
2022-08-17T05:43:31.685Z,20.70
2022-08-17T05:46:10.224Z,20.60
2022-08-17T05:48:41.305Z,20.60
2022-08-17T05:51:19.747Z,20.60
2022-08-17T05:54:05.435Z,20.50
2022-08-17T05:56:56.936Z,20.50
2022-08-17T05:59:58.768Z,20.50
2022-08-17T06:02:50.447Z,20.40
2022-08-17T06:05:39.218Z,20.40
2022-08-17T06:08:12.910Z,20.50
2022-08-17T06:11:14.013Z,20.50
2022-08-17T06:13:51.946Z,20.50
2022-08-17T06:16:33.540Z,20.50
2022-08-17T06:19:31.565Z,20.50
2022-08-17T06:21:59.915Z,20.50
2022-08-17T06:24:39.072Z,20.50
2022-08-17T06:27:25.390Z,20.50
2022-08-17T06:30:09.460Z,20.50
2022-08-17T06:32:45.205Z,20.50
2022-08-17T06:35:28.832Z,20.50
2022-08-17T06:38:02.268Z,20.50
2022-08-17T06:40:59.337Z,20.60
2022-08-17T06:43:59.369Z,20.70
2022-08-17T06:46:26.077Z,20.80
2022-08-17T06:49:13.954Z,20.80
2022-08-17T06:51:43.386Z,20.90
2022-08-17T06:54:24.546Z,20.90
2022-08-17T06:57:01.960Z,20.90
2022-08-17T06:59:54.929Z,20.90
2022-08-17T07:02:53.100Z,21.00
2022-08-17T07:05:26.832Z,21.00
2022-08-17T07:08:27.705Z,21.00
2022-08-17T07:11:00.999Z,21.00
2022-08-17T07:14:04.963Z,21.00
2022-08-17T07:16:48.787Z,21.10
2022-08-17T07:19:19.547Z,21.10
2022-08-17T07:22:05.434Z,21.10
2022-08-17T07:24:47.542Z,21.10
2022-08-17T07:27:25.058Z,21.10
2022-08-17T07:29:57.486Z,21.10
2022-08-17T07:32:34.839Z,21.10
2022-08-17T07:35:11.145Z,21.10
2022-08-17T07:37:44.145Z,21.00
2022-08-17T07:40:26.427Z,21.00
2022-08-17T07:43:26.048Z,21.00
2022-08-17T07:46:25.800Z,21.00
2022-08-17T07:48:57.909Z,21.00
2022-08-17T07:51:31.753Z,21.00
2022-08-17T07:54:22.742Z,21.00
2022-08-17T07:56:52.532Z,21.10
2022-08-17T07:59:34.463Z,21.10
2022-08-17T08:02:31.121Z,21.10
2022-08-17T08:05:31.729Z,21.10
2022-08-17T08:08:25.552Z,21.10
2022-08-17T08:11:06.500Z,21.10
2022-08-17T08:13:33.736Z,21.10
2022-08-17T08:16:17.472Z,21.20
2022-08-17T08:18:55.782Z,21.20
2022-08-17T08:21:59.768Z,21.30
2022-08-17T08:24:52.187Z,21.30
2022-08-17T08:27:37.112Z,21.30
2022-08-17T08:30:21.327Z,21.30
2022-08-17T08:33:12.408Z,21.40
2022-08-17T08:35:54.665Z,21.40
2022-08-17T08:38:28.219Z,21.40
2022-08-17T08:41:10.398Z,21.40
2022-08-17T08:43:49.557Z,21.40
2022-08-17T08:46:48.350Z,21.50
2022-08-17T08:50:03.253Z,21.60
2022-08-17T08:53:14.767Z,21.60
2022-08-17T08:56:04.453Z,21.60
2022-08-17T08:58:43.480Z,21.70
2022-08-17T09:02:01.131Z,21.70
2022-08-17T09:05:12.879Z,21.70
2022-08-17T09:07:38.481Z,21.70
2022-08-17T09:10:22.355Z,21.70
2022-08-17T09:13:10.597Z,21.60
2022-08-17T09:15:48.513Z,21.50
2022-08-17T09:19:01.089Z,21.50
2022-08-17T09:21:33.856Z,21.50
2022-08-17T09:24:20.685Z,21.50
2022-08-17T09:27:03.644Z,21.50
2022-08-17T09:29:36.443Z,21.50
2022-08-17T09:32:41.230Z,21.30
2022-08-17T09:35:19.902Z,21.30
2022-08-17T09:38:10.558Z,21.10
2022-08-17T09:40:56.936Z,21.00
2022-08-17T09:43:37.399Z,20.70
2022-08-17T09:46:29.936Z,20.70
2022-08-17T09:49:04.514Z,20.50
2022-08-17T09:51:36.494Z,20.40
2022-08-17T09:54:34.954Z,20.30
2022-08-17T09:57:32.484Z,20.40
2022-08-17T10:00:17.826Z,20.60
2022-08-17T10:03:09.600Z,20.70
2022-08-17T10:06:01.127Z,20.70
2022-08-17T10:08:52.545Z,20.80
2022-08-17T10:11:54.284Z,20.90
2022-08-17T10:14:44.448Z,21.00
2022-08-17T10:17:26.432Z,21.10
2022-08-17T10:20:02.236Z,21.00
2022-08-17T10:23:02.790Z,21.00
2022-08-17T10:25:55.246Z,21.00
2022-08-17T10:28:29.843Z,21.00
2022-08-17T10:31:31.065Z,21.10
2022-08-17T10:34:19.202Z,21.30
2022-08-17T10:36:55.706Z,21.50
2022-08-17T10:39:28.909Z,21.70
2022-08-17T10:42:02.920Z,21.70
2022-08-17T10:44:56.152Z,21.70
2022-08-17T10:47:27.045Z,21.50
2022-08-17T10:49:57.711Z,21.50
2022-08-17T10:52:27.229Z,21.30
2022-08-17T10:54:58.297Z,21.30
2022-08-17T10:57:34.511Z,21.20
2022-08-17T11:00:08.491Z,21.30
2022-08-17T11:02:54.830Z,21.30
2022-08-17T11:05:50.156Z,21.30
2022-08-17T11:08:36.215Z,21.30
2022-08-17T11:11:20.765Z,21.30
2022-08-17T11:14:11.883Z,21.30
2022-08-17T11:16:57.448Z,21.30
2022-08-17T11:20:01.468Z,21.20
2022-08-17T11:23:01.636Z,21.30
2022-08-17T11:25:45.147Z,21.20
2022-08-17T11:28:24.498Z,21.20
2022-08-17T11:30:54.964Z,21.20
2022-08-17T11:33:33.922Z,21.20
2022-08-17T11:36:40.341Z,21.10
2022-08-17T11:39:22.347Z,21.10
2022-08-17T11:42:20.118Z,21.00
2022-08-17T11:44:58.492Z,21.00
2022-08-17T11:48:26.496Z,21.00
2022-08-17T11:51:33.938Z,20.90
2022-08-17T11:54:33.327Z,20.90
2022-08-17T11:57:26.703Z,20.80
2022-08-17T11:59:59.115Z,20.70
2022-08-17T12:02:31.699Z,20.70
2022-08-17T12:05:14.202Z,20.70
2022-08-17T12:07:47.560Z,20.50
2022-08-17T12:10:18.413Z,20.60
2022-08-17T12:12:49.680Z,20.50
2022-08-17T12:15:28.867Z,20.50
2022-08-17T12:17:57.374Z,20.50
2022-08-17T12:20:28.163Z,20.50
2022-08-17T12:23:17.806Z,20.40
2022-08-17T12:26:11.293Z,20.50
2022-08-17T12:28:43.865Z,20.50
2022-08-17T12:31:24.680Z,20.60
2022-08-17T12:33:51.938Z,20.60
2022-08-17T12:36:28.292Z,20.70
2022-08-17T12:39:13.094Z,20.70
2022-08-17T12:41:48.285Z,20.70
2022-08-17T12:44:19.931Z,20.80
2022-08-17T12:46:53.162Z,20.80
2022-08-17T12:49:23.044Z,20.80
2022-08-17T12:51:52.819Z,20.80
2022-08-17T12:54:27.363Z,20.70
2022-08-17T12:56:54.396Z,20.70
2022-08-17T12:59:30.340Z,20.70
2022-08-17T13:01:57.622Z,20.70
2022-08-17T13:04:26.607Z,20.70
2022-08-17T13:06:59.816Z,20.70
2022-08-17T13:09:35.603Z,20.70
2022-08-17T13:12:06.915Z,20.70
2022-08-17T13:14:35.052Z,20.60
2022-08-17T13:17:09.731Z,20.70
2022-08-17T13:19:49.223Z,20.60
2022-08-17T13:22:15.916Z,20.70
2022-08-17T13:24:53.205Z,20.70
2022-08-17T13:27:23.015Z,20.70
2022-08-17T13:29:54.051Z,20.70
2022-08-17T13:32:45.141Z,20.70
2022-08-17T13:35:29.532Z,20.70
2022-08-17T13:38:06.586Z,20.80
2022-08-17T13:40:43.888Z,20.70
2022-08-17T13:43:11.638Z,20.80
2022-08-17T13:45:50.717Z,20.90
2022-08-17T13:48:27.796Z,20.90
2022-08-17T13:50:57.438Z,20.90
2022-08-17T13:53:33.575Z,20.90
2022-08-17T13:56:37.891Z,21.00
2022-08-17T13:59:48.183Z,21.00
2022-08-17T14:02:12.293Z,21.00
2022-08-17T14:04:41.280Z,21.10
2022-08-17T14:07:12.978Z,21.10
2022-08-17T14:09:54.240Z,21.10
2022-08-17T14:12:24.886Z,21.20
2022-08-17T14:14:52.467Z,21.20
2022-08-17T14:17:20.217Z,21.20
2022-08-17T14:19:47.082Z,21.30
2022-08-17T14:22:35.548Z,21.30
2022-08-17T14:25:02.372Z,21.30
2022-08-17T14:27:33.393Z,21.40
2022-08-17T14:30:09.041Z,21.40
2022-08-17T14:32:37.684Z,21.40
2022-08-17T14:35:08.844Z,21.40
2022-08-17T14:40:33.439Z,21.50
2022-08-17T14:43:01.337Z,21.50
2022-08-17T14:45:32.842Z,21.50
2022-08-17T14:48:16.101Z,21.50
2022-08-17T14:50:45.433Z,21.60
2022-08-17T14:53:15.959Z,21.60
2022-08-17T14:55:45.621Z,21.60
2022-08-17T14:58:14.014Z,21.60
2022-08-17T15:00:42.917Z,21.60
2022-08-17T15:03:11.398Z,21.60
2022-08-17T15:05:39.280Z,21.60
2022-08-17T15:08:07.137Z,21.60
2022-08-17T15:10:34.241Z,21.60
2022-08-17T15:13:01.135Z,21.70
2022-08-17T15:15:28.624Z,21.70
2022-08-17T15:17:55.679Z,21.70
2022-08-17T15:20:25.285Z,21.70
2022-08-17T15:22:56.118Z,21.80
2022-08-17T15:25:28.688Z,21.80
2022-08-17T15:27:55.847Z,21.80
2022-08-17T15:30:23.267Z,21.80
2022-08-17T15:32:55.140Z,21.70
2022-08-17T15:35:29.088Z,21.70
2022-08-17T15:37:58.330Z,21.80
2022-08-17T15:40:25.218Z,21.70
2022-08-17T15:42:53.088Z,21.70
2022-08-17T15:45:24.846Z,21.70
2022-08-17T15:47:52.549Z,21.80
2022-08-17T15:50:19.643Z,21.80
2022-08-17T15:52:51.744Z,21.70
2022-08-17T15:55:23.512Z,21.70
2022-08-17T15:57:52.578Z,21.70
2022-08-17T16:00:20.688Z,21.70
2022-08-17T16:03:44.715Z,21.70
2022-08-17T16:05:40.670Z,21.70
2022-08-17T16:08:07.711Z,21.70
2022-08-17T16:10:35.752Z,21.60
2022-08-17T16:13:04.119Z,21.60
2022-08-17T16:15:31.629Z,21.60
2022-08-17T16:17:58.711Z,21.60
2022-08-17T16:20:25.436Z,21.60
2022-08-17T16:22:52.490Z,21.70
2022-08-17T16:25:49.205Z,21.70
2022-08-17T16:28:13.693Z,21.80
2022-08-17T16:30:41.153Z,21.80
2022-08-17T16:33:11.461Z,21.80
2022-08-17T16:35:40.859Z,21.90
2022-08-17T16:38:12.389Z,21.90
2022-08-17T16:40:40.587Z,21.80
2022-08-17T16:43:12.109Z,21.80
2022-08-17T16:45:40.553Z,21.80
2022-08-17T16:48:09.246Z,21.80
2022-08-17T16:50:37.123Z,21.80
2022-08-17T16:53:08.093Z,21.90
2022-08-17T16:55:35.636Z,21.90
2022-08-17T16:58:04.841Z,21.90
2022-08-17T17:00:33.383Z,21.90
2022-08-17T17:03:28.056Z,21.90
2022-08-17T17:06:18.715Z,21.80
2022-08-17T17:08:59.543Z,21.80
2022-08-17T17:11:44.035Z,21.80
2022-08-17T17:14:16.402Z,21.80
2022-08-17T17:16:50.304Z,21.70
2022-08-17T17:19:34.829Z,21.70
2022-08-17T17:22:20.031Z,21.70
2022-08-17T17:25:28.104Z,21.60
2022-08-17T17:28:18.708Z,21.70
2022-08-17T17:30:59.230Z,21.60
2022-08-17T17:33:40.843Z,21.60
2022-08-17T17:36:15.775Z,21.60
2022-08-17T17:38:50.804Z,21.60
2022-08-17T17:41:26.416Z,21.50
2022-08-17T17:44:01.748Z,21.50
2022-08-17T17:46:37.886Z,21.50
2022-08-17T17:49:06.318Z,21.40
2022-08-17T17:52:07.230Z,21.50
2022-08-17T17:54:58.853Z,21.50
2022-08-17T17:58:06.774Z,21.40
2022-08-17T18:00:49.193Z,21.40
2022-08-17T18:03:29.195Z,21.40
2022-08-17T18:06:12.613Z,21.40
2022-08-17T18:09:04.211Z,21.30
2022-08-17T18:11:59.177Z,21.30
2022-08-17T18:14:52.632Z,21.30
2022-08-17T18:17:20.511Z,21.30
2022-08-17T18:19:48.191Z,21.30
2022-08-17T18:22:20.106Z,21.30
2022-08-17T18:24:55.641Z,21.30
2022-08-17T18:27:50.522Z,21.30
2022-08-17T18:30:17.296Z,21.30
2022-08-17T18:32:48.624Z,21.30
2022-08-17T18:35:17.993Z,21.30
2022-08-17T18:37:46.701Z,21.30
2022-08-17T18:40:20.374Z,21.30
2022-08-17T18:42:50.109Z,21.30
2022-08-17T18:45:42.770Z,21.30
2022-08-17T18:48:46.630Z,21.30
2022-08-17T18:51:40.357Z,21.20
2022-08-17T18:54:24.100Z,21.20
2022-08-17T18:56:56.608Z,21.20
2022-08-17T18:59:43.658Z,21.10
2022-08-17T19:02:24.948Z,21.00
2022-08-17T19:05:28.516Z,20.90
2022-08-17T19:08:23.137Z,20.90
2022-08-17T19:10:58.800Z,20.70
2022-08-17T19:13:37.348Z,20.70
2022-08-17T19:16:29.048Z,20.60
2022-08-17T19:19:17.160Z,20.50
2022-08-17T19:22:17.020Z,20.50
2022-08-17T19:25:09.249Z,20.40
2022-08-17T19:27:57.217Z,20.40
2022-08-17T19:30:24.805Z,20.40
2022-08-17T19:32:52.995Z,20.40
2022-08-17T19:35:24.936Z,20.40
2022-08-17T19:38:03.924Z,20.40
2022-08-17T19:40:54.859Z,20.30
2022-08-17T19:43:35.580Z,20.30
2022-08-17T19:46:27.697Z,20.30
2022-08-17T19:49:33.264Z,20.30
2022-08-17T19:52:21.954Z,20.30
2022-08-17T19:55:04.479Z,20.30
2022-08-17T19:58:00.012Z,20.30
2022-08-17T20:00:27.133Z,20.30
2022-08-17T20:03:26.453Z,20.30
2022-08-17T20:06:12.526Z,20.30
2022-08-17T20:08:48.921Z,20.30
2022-08-17T20:11:21.456Z,20.40
2022-08-17T20:13:58.673Z,20.40
2022-08-17T20:16:26.208Z,20.40
2022-08-17T20:19:14.527Z,20.40
2022-08-17T20:21:52.676Z,20.40
2022-08-17T20:24:44.211Z,20.40
2022-08-17T20:28:15.401Z,20.40
2022-08-17T20:30:44.123Z,20.40
2022-08-17T20:33:33.593Z,20.40
2022-08-17T20:36:16.092Z,20.40
2022-08-17T20:38:52.376Z,20.40
2022-08-17T20:41:22.423Z,20.40
2022-08-17T20:44:01.994Z,20.30
2022-08-17T20:46:37.825Z,20.30
2022-08-17T20:49:18.138Z,20.30
2022-08-17T20:52:02.716Z,20.30
2022-08-17T20:54:46.987Z,20.30
2022-08-17T20:57:36.724Z,20.30
2022-08-17T21:00:16.319Z,20.30
2022-08-17T21:02:49.845Z,20.20
2022-08-17T21:05:34.858Z,20.20
2022-08-17T21:08:13.702Z,20.20
2022-08-17T21:10:43.805Z,20.20
2022-08-17T21:13:15.714Z,20.20
2022-08-17T21:15:57.038Z,20.10
2022-08-17T21:18:48.498Z,20.10
2022-08-17T21:21:34.020Z,20.10
2022-08-17T21:24:19.223Z,20.10
2022-08-17T21:27:08.257Z,20.10
2022-08-17T21:29:52.833Z,20.10
2022-08-17T21:32:28.536Z,20.00
2022-08-17T21:35:07.136Z,20.00
2022-08-17T21:37:45.978Z,20.00
2022-08-17T21:40:13.006Z,20.00
2022-08-17T21:42:54.090Z,20.00
2022-08-17T21:45:31.882Z,19.90
2022-08-17T21:48:19.733Z,19.90
2022-08-17T21:51:10.427Z,19.90
2022-08-17T21:53:44.365Z,19.90
2022-08-17T21:56:25.939Z,19.90
2022-08-17T21:59:01.056Z,19.90
2022-08-17T22:01:35.119Z,19.90
2022-08-17T22:04:06.086Z,19.90
2022-08-17T22:06:52.683Z,19.80
2022-08-17T22:09:31.569Z,19.80
2022-08-17T22:12:11.106Z,19.80
2022-08-17T22:14:52.888Z,19.70
2022-08-17T22:17:35.924Z,19.80
2022-08-17T22:20:48.911Z,19.70
2022-08-17T22:23:31.429Z,19.70
2022-08-17T22:26:04.688Z,19.60
2022-08-17T22:28:40.845Z,19.60
2022-08-17T22:31:10.591Z,19.60
2022-08-17T22:34:02.113Z,19.50
2022-08-17T22:36:33.466Z,19.50
2022-08-17T22:39:23.110Z,19.50
2022-08-17T22:41:54.395Z,19.40
2022-08-17T22:44:27.539Z,19.40
2022-08-17T22:46:55.483Z,19.30
2022-08-17T22:49:29.487Z,19.30
2022-08-17T22:52:23.660Z,19.30
2022-08-17T22:55:23.294Z,19.20
2022-08-17T22:58:09.021Z,19.20
2022-08-17T23:00:42.197Z,19.20
2022-08-17T23:03:25.829Z,19.10
2022-08-17T23:06:03.922Z,19.10
2022-08-17T23:08:33.235Z,19.10
2022-08-17T23:11:00.133Z,19.10
2022-08-17T23:13:28.103Z,19.00
2022-08-17T23:15:54.868Z,19.10
2022-08-17T23:18:23.351Z,19.00
2022-08-17T23:20:50.182Z,19.00
2022-08-17T23:23:23.433Z,19.00
2022-08-17T23:25:50.506Z,19.00
2022-08-17T23:28:18.691Z,19.10
2022-08-17T23:30:48.247Z,19.10
2022-08-17T23:33:21.312Z,19.10
2022-08-17T23:35:48.237Z,19.00
2022-08-17T23:38:14.908Z,19.00
2022-08-17T23:40:41.895Z,19.00
2022-08-17T23:43:17.565Z,19.00
2022-08-17T23:45:56.048Z,19.00
2022-08-17T23:48:35.325Z,18.90
2022-08-17T23:51:12.875Z,18.90
2022-08-17T23:53:47.137Z,18.80
2022-08-17T23:56:14.921Z,18.80
2022-08-17T23:58:45.259Z,18.70
